createdAt,value
2022-08-19T00:02:14.081Z,11.95
2022-08-19T00:04:41.493Z,13.15
2022-08-19T00:07:08.686Z,12.90
2022-08-19T00:09:35.865Z,11.68
2022-08-19T00:12:03.721Z,12.35
2022-08-19T00:14:34.085Z,11.00
2022-08-19T00:17:01.896Z,11.10
2022-08-19T00:19:29.124Z,11.40
2022-08-19T00:21:57.091Z,12.07
2022-08-19T00:24:24.560Z,11.35
2022-08-19T00:26:52.983Z,13.00
2022-08-19T00:29:21.898Z,11.30
2022-08-19T00:31:50.778Z,12.70
2022-08-19T00:34:18.126Z,11.88
2022-08-19T00:36:46.134Z,11.93
2022-08-19T00:39:14.288Z,12.50
2022-08-19T00:41:41.780Z,12.02
2022-08-19T00:44:13.636Z,10.13
2022-08-19T00:46:43.005Z,10.45
2022-08-19T00:51:47.589Z,10.48
2022-08-19T00:54:15.808Z,10.32
2022-08-19T00:56:43.480Z,9.43
2022-08-19T00:59:11.521Z,10.23
2022-08-19T01:01:43.643Z,11.23
2022-08-19T01:04:11.029Z,10.65
2022-08-19T01:06:40.723Z,11.65
2022-08-19T01:09:09.046Z,12.57
2022-08-19T01:11:41.097Z,10.95
2022-08-19T01:14:10.264Z,11.07
2022-08-19T01:16:39.796Z,11.52
2022-08-19T01:19:44.436Z,11.07
2022-08-19T01:22:20.024Z,11.27
2022-08-19T01:24:50.320Z,11.65
2022-08-19T01:27:18.917Z,12.23
2022-08-19T01:29:47.771Z,10.50
2022-08-19T01:32:33.157Z,10.38
2022-08-19T01:35:03.902Z,10.32
2022-08-19T01:37:42.354Z,11.10
2022-08-19T01:40:10.661Z,10.97
2022-08-19T01:42:37.931Z,10.85
2022-08-19T01:45:07.141Z,11.32
2022-08-19T01:47:37.157Z,10.85
2022-08-19T01:50:07.255Z,11.18
2022-08-19T01:52:37.018Z,13.82
2022-08-19T01:55:07.235Z,11.63
2022-08-19T01:57:34.879Z,12.05
2022-08-19T02:00:03.934Z,9.73
2022-08-19T02:02:38.976Z,12.07
2022-08-19T02:05:08.142Z,10.32
2022-08-19T02:07:41.298Z,10.65
2022-08-19T02:10:19.163Z,12.25
2022-08-19T02:12:46.455Z,10.85
2022-08-19T02:15:14.959Z,11.47
2022-08-19T02:17:43.251Z,10.80
2022-08-19T02:20:11.168Z,9.98
2022-08-19T02:22:42.359Z,9.13
2022-08-19T02:25:11.604Z,10.18
2022-08-19T02:30:08.906Z,9.10
2022-08-19T02:32:44.724Z,9.30
2022-08-19T02:35:14.110Z,8.88
2022-08-19T02:38:01.344Z,8.57
2022-08-19T02:40:29.445Z,9.00
2022-08-19T02:42:57.038Z,8.68
2022-08-19T02:45:24.245Z,9.60
2022-08-19T02:47:51.400Z,8.73
2022-08-19T02:50:19.542Z,11.40
2022-08-19T02:52:46.743Z,10.18
2022-08-19T02:55:13.917Z,8.27
2022-08-19T02:57:42.003Z,8.05
2022-08-19T03:00:13.367Z,8.68
2022-08-19T03:02:41.517Z,8.50
2022-08-19T03:05:10.637Z,9.68
2022-08-19T03:07:38.105Z,10.70
2022-08-19T03:10:05.983Z,9.15
2022-08-19T03:12:36.828Z,10.15
2022-08-19T03:15:06.460Z,9.15
2022-08-19T03:17:34.289Z,9.35
2022-08-19T03:20:01.875Z,9.50
2022-08-19T03:22:30.944Z,13.18
2022-08-19T03:24:58.204Z,14.02
2022-08-19T03:27:26.671Z,14.02
2022-08-19T03:29:57.572Z,13.25
2022-08-19T03:32:32.476Z,13.63
2022-08-19T03:35:00.626Z,11.38
2022-08-19T03:37:27.719Z,12.23
2022-08-19T03:39:54.955Z,14.65
2022-08-19T03:42:32.609Z,15.73
2022-08-19T03:45:08.152Z,12.27
2022-08-19T03:47:35.285Z,12.95
2022-08-19T03:50:03.277Z,13.07
2022-08-19T03:52:30.456Z,11.57
2022-08-19T03:54:57.698Z,13.50
2022-08-19T03:57:31.750Z,12.00
2022-08-19T04:00:03.733Z,12.10
2022-08-19T04:02:42.181Z,10.68
2022-08-19T04:05:09.631Z,11.35
2022-08-19T04:07:36.771Z,11.90
2022-08-19T04:10:04.329Z,12.40
2022-08-19T04:12:31.485Z,12.73
2022-08-19T04:14:59.324Z,12.32
2022-08-19T04:17:26.772Z,12.15
2022-08-19T04:19:53.870Z,10.15
2022-08-19T04:22:21.027Z,8.60
2022-08-19T04:24:48.123Z,8.68
2022-08-19T04:27:16.663Z,9.05
2022-08-19T04:29:44.147Z,9.40
2022-08-19T04:32:12.036Z,9.48
2022-08-19T04:35:01.361Z,7.40
2022-08-19T04:37:35.039Z,8.50
2022-08-19T04:40:23.230Z,7.70
2022-08-19T04:42:50.362Z,8.70
2022-08-19T04:45:17.701Z,10.40
2022-08-19T04:47:48.178Z,10.05
2022-08-19T04:50:28.055Z,8.88
2022-08-19T04:52:56.873Z,8.32
2022-08-19T04:55:26.335Z,8.90
2022-08-19T04:57:55.089Z,8.73
2022-08-19T05:00:22.445Z,10.02
2022-08-19T05:02:50.124Z,10.20
2022-08-19T05:05:18.123Z,11.40
2022-08-19T05:07:45.263Z,10.85
2022-08-19T05:10:13.243Z,10.43
2022-08-19T05:12:40.452Z,10.45
2022-08-19T05:15:09.437Z,9.50
2022-08-19T05:17:38.879Z,9.57
2022-08-19T05:20:27.014Z,8.82
2022-08-19T05:22:54.468Z,9.02
2022-08-19T05:25:22.654Z,8.70
2022-08-19T05:27:50.278Z,13.13
2022-08-19T05:30:18.312Z,11.80
2022-08-19T05:32:45.875Z,8.23
2022-08-19T05:35:13.175Z,8.48
2022-08-19T05:37:44.006Z,8.75
2022-08-19T05:40:11.758Z,9.02
2022-08-19T05:42:39.311Z,8.75
2022-08-19T05:45:07.525Z,8.55
2022-08-19T05:47:34.694Z,8.95
2022-08-19T05:50:02.879Z,8.18
2022-08-19T05:52:32.692Z,8.15
2022-08-19T05:55:00.847Z,9.57
2022-08-19T05:57:29.831Z,8.98
2022-08-19T05:59:59.121Z,9.27
2022-08-19T06:04:59.182Z,10.20
2022-08-19T06:07:26.411Z,11.90
2022-08-19T06:10:00.347Z,10.25
2022-08-19T06:12:33.930Z,9.70
2022-08-19T06:15:02.879Z,10.70
2022-08-19T06:17:31.325Z,10.85
2022-08-19T06:19:59.557Z,10.40
2022-08-19T06:22:28.104Z,12.32
2022-08-19T06:24:56.506Z,12.60
2022-08-19T06:27:24.161Z,10.77
2022-08-19T06:29:51.328Z,10.18
2022-08-19T06:32:20.078Z,11.65
2022-08-19T06:34:47.811Z,10.45
2022-08-19T06:37:15.014Z,10.80
2022-08-19T06:39:44.302Z,12.27
2022-08-19T06:44:48.165Z,9.40
2022-08-19T06:47:23.991Z,10.27
2022-08-19T06:50:05.508Z,10.70
2022-08-19T06:52:38.225Z,10.90
2022-08-19T06:55:06.892Z,11.90
2022-08-19T06:57:34.729Z,12.97
2022-08-19T07:00:02.285Z,10.98
2022-08-19T07:02:29.572Z,11.65
2022-08-19T07:04:59.013Z,10.18
2022-08-19T07:07:26.275Z,10.63
2022-08-19T07:09:59.866Z,11.30
2022-08-19T07:12:32.303Z,13.20
2022-08-19T07:14:59.825Z,10.82
2022-08-19T07:17:27.621Z,11.77
2022-08-19T07:19:56.154Z,12.40
2022-08-19T07:22:24.170Z,11.95
2022-08-19T07:24:52.494Z,15.23
2022-08-19T07:27:24.825Z,11.82
2022-08-19T07:29:56.261Z,13.77
2022-08-19T07:32:28.220Z,11.25
2022-08-19T07:34:57.109Z,12.13
2022-08-19T07:37:32.373Z,13.32
2022-08-19T07:40:02.068Z,12.23
2022-08-19T07:42:30.791Z,15.13
2022-08-19T07:44:59.347Z,13.63
2022-08-19T07:47:49.170Z,11.77
2022-08-19T07:50:16.550Z,11.98
2022-08-19T07:52:45.740Z,12.93
2022-08-19T07:55:42.086Z,12.50
2022-08-19T07:58:07.200Z,14.50
2022-08-19T08:00:34.918Z,13.40
2022-08-19T08:03:02.115Z,13.55
2022-08-19T08:05:47.507Z,13.13
2022-08-19T08:08:27.657Z,11.85
2022-08-19T08:10:56.783Z,14.27
2022-08-19T08:15:52.218Z,14.82
2022-08-19T08:18:21.901Z,11.18
2022-08-19T08:20:56.273Z,11.70
2022-08-19T08:23:24.666Z,11.47
2022-08-19T08:25:53.498Z,12.17
2022-08-19T08:28:20.834Z,10.18
2022-08-19T08:30:50.709Z,12.07
2022-08-19T08:33:34.157Z,14.93
2022-08-19T08:36:09.881Z,13.27
2022-08-19T08:38:41.540Z,10.20
2022-08-19T08:41:45.414Z,8.95
2022-08-19T08:44:20.219Z,10.75
2022-08-19T08:46:57.595Z,10.73
2022-08-19T08:49:46.513Z,11.65
2022-08-19T08:52:24.640Z,10.48
2022-08-19T08:55:03.184Z,13.98
2022-08-19T08:57:49.765Z,15.70
2022-08-19T09:00:31.208Z,15.73
2022-08-19T09:03:00.731Z,14.93
2022-08-19T09:05:48.635Z,16.02
2022-08-19T09:08:40.304Z,16.17
2022-08-19T09:11:13.467Z,12.43
2022-08-19T09:14:01.521Z,14.48
2022-08-19T09:16:28.762Z,14.52
2022-08-19T09:19:03.733Z,15.70
2022-08-19T09:21:35.474Z,17.83
2022-08-19T09:24:05.399Z,12.63
2022-08-19T09:26:35.290Z,15.63
2022-08-19T09:29:15.219Z,14.23
2022-08-19T09:31:42.850Z,13.80
2022-08-19T09:34:21.099Z,12.35
2022-08-19T09:39:23.067Z,11.98
2022-08-19T09:41:50.953Z,10.23
2022-08-19T09:44:21.104Z,12.57
2022-08-19T09:46:49.237Z,12.50
2022-08-19T09:49:18.666Z,11.32
2022-08-19T09:51:51.287Z,11.25
2022-08-19T09:54:23.400Z,10.80
2022-08-19T09:56:56.115Z,9.55
2022-08-19T09:59:23.365Z,10.93
2022-08-19T10:01:54.116Z,10.50
2022-08-19T10:04:44.784Z,11.20
2022-08-19T10:07:12.233Z,11.63
2022-08-19T10:09:41.846Z,10.47
2022-08-19T10:12:11.286Z,9.52
2022-08-19T10:14:39.282Z,8.82
2022-08-19T10:17:19.238Z,8.55
2022-08-19T10:19:55.051Z,11.60
2022-08-19T10:22:23.265Z,10.75
2022-08-19T10:24:53.451Z,9.20
2022-08-19T10:27:20.689Z,8.70
2022-08-19T10:29:48.750Z,8.80
2022-08-19T10:32:16.542Z,9.15
2022-08-19T10:34:48.510Z,10.45
2022-08-19T10:37:29.082Z,8.07
2022-08-19T10:39:59.650Z,7.70
2022-08-19T10:42:26.813Z,7.97
2022-08-19T10:44:54.051Z,8.43
2022-08-19T10:47:25.677Z,9.73
2022-08-19T10:50:14.270Z,10.05
2022-08-19T10:52:49.189Z,7.67
2022-08-19T10:55:41.354Z,9.70
2022-08-19T10:58:23.426Z,7.53
2022-08-19T11:00:58.951Z,7.78
2022-08-19T11:03:28.832Z,7.70
2022-08-19T11:06:04.941Z,7.55
2022-08-19T11:08:33.139Z,7.03
2022-08-19T11:11:03.773Z,8.35
2022-08-19T11:13:34.348Z,7.93
2022-08-19T11:16:22.605Z,8.50
2022-08-19T11:18:52.725Z,8.10
2022-08-19T11:21:26.003Z,7.30
2022-08-19T11:23:56.569Z,8.05
2022-08-19T11:26:25.158Z,7.55
2022-08-19T11:28:55.056Z,6.25
2022-08-19T11:31:28.940Z,6.32
2022-08-19T11:34:02.636Z,5.50
2022-08-19T11:36:31.352Z,6.60
2022-08-19T11:38:58.449Z,9.00
2022-08-19T11:41:26.391Z,8.77
2022-08-19T11:43:56.013Z,9.35
2022-08-19T11:46:25.954Z,7.53
2022-08-19T11:48:53.359Z,6.00
2022-08-19T11:51:23.236Z,6.97
2022-08-19T11:53:51.655Z,5.45
2022-08-19T11:56:19.732Z,6.50
2022-08-19T11:58:47.031Z,7.35
2022-08-19T12:01:16.921Z,6.97
2022-08-19T12:03:45.856Z,5.28
2022-08-19T12:06:17.758Z,6.30
2022-08-19T12:08:45.584Z,6.80
2022-08-19T12:11:14.616Z,6.63
2022-08-19T12:16:17.899Z,7.35
2022-08-19T12:18:47.181Z,6.00
2022-08-19T12:21:16.954Z,6.43
2022-08-19T12:23:46.310Z,6.53
2022-08-19T12:26:13.545Z,7.63
2022-08-19T12:28:40.846Z,7.55
2022-08-19T12:31:08.333Z,7.05
2022-08-19T12:33:35.685Z,6.97
2022-08-19T12:36:08.441Z,6.55
2022-08-19T12:38:37.047Z,6.65
2022-08-19T12:41:08.572Z,7.38
2022-08-19T12:43:35.935Z,6.45
2022-08-19T12:46:05.183Z,6.53
2022-08-19T12:48:35.688Z,7.10
2022-08-19T12:51:16.335Z,7.70
2022-08-19T12:53:43.767Z,7.32
2022-08-19T12:56:12.374Z,7.25
2022-08-19T13:01:09.556Z,8.02
2022-08-19T13:03:40.563Z,7.68
2022-08-19T13:06:09.398Z,5.82
2022-08-19T13:08:37.558Z,7.15
2022-08-19T13:11:13.923Z,6.70
2022-08-19T13:13:42.575Z,6.45
2022-08-19T13:16:12.212Z,7.13
2022-08-19T13:18:41.181Z,7.47
2022-08-19T13:21:10.330Z,5.65
2022-08-19T13:23:37.493Z,6.55
2022-08-19T13:26:06.993Z,8.55
2022-08-19T13:28:54.160Z,8.60
2022-08-19T13:31:42.415Z,7.03
2022-08-19T13:34:10.191Z,7.63
2022-08-19T13:36:38.816Z,7.65
2022-08-19T13:39:08.485Z,8.25
2022-08-19T13:41:36.987Z,6.90
2022-08-19T13:44:06.717Z,8.35
2022-08-19T13:46:33.867Z,7.80
2022-08-19T13:49:00.993Z,7.88
2022-08-19T13:51:28.153Z,8.68
2022-08-19T13:53:56.195Z,8.95
2022-08-19T13:56:26.302Z,7.82
2022-08-19T13:58:54.427Z,8.55
2022-08-19T14:01:24.377Z,8.98
2022-08-19T14:03:52.335Z,9.10
2022-08-19T14:06:20.782Z,7.70
2022-08-19T14:08:47.895Z,9.10
2022-08-19T14:11:15.670Z,8.43
2022-08-19T14:13:42.842Z,8.30
2022-08-19T14:16:11.962Z,10.40
2022-08-19T14:18:39.412Z,8.18
2022-08-19T14:21:06.817Z,8.18
2022-08-19T14:23:34.639Z,9.15
2022-08-19T14:26:15.635Z,7.00
2022-08-19T14:28:44.448Z,6.47
2022-08-19T14:31:19.353Z,6.55
2022-08-19T14:33:51.552Z,8.25
2022-08-19T14:36:20.627Z,7.82
2022-08-19T14:41:20.245Z,8.80
2022-08-19T14:43:50.735Z,7.32
2022-08-19T14:46:21.525Z,8.43
2022-08-19T14:48:50.678Z,5.57
2022-08-19T14:51:20.795Z,7.20
2022-08-19T14:56:20.285Z,10.70
2022-08-19T14:58:48.213Z,7.50
2022-08-19T15:01:15.508Z,7.33
2022-08-19T15:03:42.750Z,7.03
2022-08-19T15:06:12.533Z,5.70
2022-08-19T15:08:41.938Z,7.22
2022-08-19T15:11:12.199Z,6.85
2022-08-19T15:13:40.589Z,6.85
2022-08-19T15:16:10.050Z,6.28
2022-08-19T15:18:46.288Z,6.30
2022-08-19T15:21:17.381Z,7.28
2022-08-19T15:23:55.876Z,5.80
2022-08-19T15:26:23.027Z,5.65
2022-08-19T15:28:50.186Z,6.72
2022-08-19T15:31:28.001Z,6.40
2022-08-19T15:33:58.458Z,8.32
2022-08-19T15:36:27.063Z,5.97
2022-08-19T15:38:55.980Z,6.00
2022-08-19T15:43:59.645Z,3.85
2022-08-19T15:46:29.455Z,4.30
2022-08-19T15:49:00.352Z,4.43
2022-08-19T15:51:32.492Z,3.53
2022-08-19T15:54:00.082Z,3.30
2022-08-19T15:56:57.725Z,2.53
2022-08-19T15:59:47.102Z,1.95
2022-08-19T16:02:35.332Z,2.08
2022-08-19T16:05:26.763Z,1.85
2022-08-19T16:07:54.665Z,1.67
2022-08-19T16:10:27.224Z,1.92
2022-08-19T16:12:57.547Z,1.92
2022-08-19T16:15:27.812Z,1.52
2022-08-19T16:17:56.513Z,1.30
2022-08-19T16:20:26.347Z,1.58
2022-08-19T16:22:55.188Z,1.50
2022-08-19T16:25:27.439Z,1.45
2022-08-19T16:28:07.587Z,1.30
2022-08-19T16:30:37.549Z,1.23
2022-08-19T16:33:04.941Z,1.50
2022-08-19T16:35:32.153Z,1.77
2022-08-19T16:37:59.341Z,1.50
2022-08-19T16:40:26.569Z,2.60
2022-08-19T16:42:53.707Z,1.50
2022-08-19T16:45:21.861Z,1.60
2022-08-19T16:47:49.023Z,1.30
2022-08-19T16:50:22.128Z,1.25
2022-08-19T16:52:58.685Z,1.63
2022-08-19T16:55:27.886Z,1.70
2022-08-19T16:57:55.255Z,1.50
2022-08-19T17:00:22.591Z,1.33
2022-08-19T17:02:49.862Z,1.13
2022-08-19T17:05:17.138Z,1.30
2022-08-19T17:07:44.545Z,1.20
2022-08-19T17:10:11.652Z,1.25
2022-08-19T17:12:38.815Z,1.30
2022-08-19T17:15:08.130Z,0.95
2022-08-19T17:17:35.790Z,1.02
2022-08-19T17:20:04.283Z,0.88
2022-08-19T17:22:31.514Z,1.08
2022-08-19T17:24:58.780Z,0.90
2022-08-19T17:27:31.610Z,0.70
2022-08-19T17:30:01.113Z,0.60
2022-08-19T17:32:28.281Z,0.80
2022-08-19T17:34:55.524Z,0.93
2022-08-19T17:37:23.037Z,1.05
2022-08-19T17:39:50.256Z,1.00
2022-08-19T17:42:17.487Z,0.70
2022-08-19T17:44:44.873Z,0.75
2022-08-19T17:47:19.271Z,0.70
2022-08-19T17:49:46.841Z,1.00
2022-08-19T17:52:14.125Z,0.93
2022-08-19T17:54:41.202Z,0.55
2022-08-19T17:57:09.537Z,0.70
2022-08-19T17:59:39.758Z,0.80
2022-08-19T18:02:10.208Z,0.82
2022-08-19T18:04:38.899Z,0.63
2022-08-19T18:07:06.223Z,0.70
2022-08-19T18:09:41.918Z,0.75
2022-08-19T18:12:13.928Z,0.70
2022-08-19T18:14:41.863Z,0.73
2022-08-19T18:17:12.352Z,0.60
2022-08-19T18:19:43.427Z,0.90
2022-08-19T18:22:27.239Z,0.65
2022-08-19T18:24:57.003Z,0.90
2022-08-19T18:27:27.046Z,0.80
2022-08-19T18:29:57.985Z,0.68
2022-08-19T18:32:27.303Z,0.70
2022-08-19T18:34:54.779Z,0.60
2022-08-19T18:37:22.639Z,0.70
2022-08-19T18:40:08.298Z,0.95
2022-08-19T18:42:54.075Z,0.60
2022-08-19T18:45:43.543Z,0.60
2022-08-19T18:48:29.757Z,0.40
2022-08-19T18:50:58.779Z,0.50
2022-08-19T18:55:55.002Z,0.63
2022-08-19T18:58:32.038Z,0.60
2022-08-19T19:01:01.990Z,0.75
2022-08-19T19:03:29.238Z,0.95
2022-08-19T19:05:56.367Z,0.65
2022-08-19T19:08:27.426Z,0.50
2022-08-19T19:10:56.371Z,0.73
2022-08-19T19:13:23.479Z,0.82
2022-08-19T19:15:50.667Z,0.70
2022-08-19T19:18:17.751Z,0.70
2022-08-19T19:20:44.907Z,0.90
2022-08-19T19:23:12.165Z,0.93
2022-08-19T19:25:50.525Z,0.80
2022-08-19T19:28:25.475Z,0.60
2022-08-19T19:30:54.642Z,0.55
2022-08-19T19:33:21.771Z,0.70
2022-08-19T19:35:48.983Z,0.65
2022-08-19T19:38:16.237Z,0.80
2022-08-19T19:40:43.352Z,0.80
2022-08-19T19:43:10.481Z,0.95
2022-08-19T19:45:38.127Z,0.50
2022-08-19T19:48:05.617Z,0.80
2022-08-19T19:50:32.751Z,0.52
2022-08-19T19:52:59.943Z,0.85
2022-08-19T19:55:28.819Z,0.70
2022-08-19T19:57:57.682Z,0.50
2022-08-19T20:00:25.740Z,0.50
2022-08-19T20:02:55.783Z,0.57
2022-08-19T20:05:23.258Z,1.00
2022-08-19T20:08:11.440Z,0.93
2022-08-19T20:10:39.565Z,0.73
2022-08-19T20:13:07.421Z,0.50
2022-08-19T20:15:37.902Z,0.73
2022-08-19T20:18:07.555Z,0.70
2022-08-19T20:20:35.366Z,0.47
2022-08-19T20:23:02.569Z,0.52
2022-08-19T20:25:30.387Z,1.17
2022-08-19T20:27:57.846Z,0.70
2022-08-19T20:30:25.562Z,0.63
2022-08-19T20:32:56.444Z,0.50
2022-08-19T20:35:23.990Z,0.77
2022-08-19T20:37:53.850Z,0.57
2022-08-19T20:40:24.995Z,0.90
2022-08-19T20:42:52.116Z,1.20
2022-08-19T20:45:33.090Z,0.80
2022-08-19T20:48:03.702Z,1.30
2022-08-19T20:50:35.166Z,1.02
2022-08-19T20:53:16.493Z,0.80
2022-08-19T20:55:45.554Z,1.13
2022-08-19T20:58:13.613Z,1.00
2022-08-19T21:00:41.423Z,1.00
2022-08-19T21:03:08.692Z,0.70
2022-08-19T21:05:36.226Z,0.90
2022-08-19T21:08:04.537Z,0.80
2022-08-19T21:10:32.632Z,0.80
2022-08-19T21:12:59.786Z,0.80
2022-08-19T21:15:26.902Z,0.80
2022-08-19T21:17:54.110Z,0.70
2022-08-19T21:20:21.328Z,0.82
2022-08-19T21:22:48.820Z,0.63
2022-08-19T21:25:17.539Z,0.77
2022-08-19T21:27:44.675Z,0.77
2022-08-19T21:30:12.466Z,1.10
2022-08-19T21:32:39.622Z,0.70
2022-08-19T21:35:07.017Z,0.88
2022-08-19T21:37:35.451Z,1.27
2022-08-19T21:40:02.881Z,1.00
2022-08-19T21:42:30.058Z,0.80
2022-08-19T21:44:57.189Z,1.00
2022-08-19T21:47:24.296Z,1.00
2022-08-19T21:49:51.393Z,1.00
2022-08-19T21:52:26.765Z,1.00
2022-08-19T21:54:55.334Z,1.00
2022-08-19T21:57:24.453Z,0.90
2022-08-19T22:02:21.082Z,1.17
2022-08-19T22:04:51.337Z,1.17
2022-08-19T22:07:19.702Z,1.10
2022-08-19T22:09:48.503Z,1.10
2022-08-19T22:12:26.453Z,1.00
2022-08-19T22:14:54.597Z,1.08
2022-08-19T22:17:22.906Z,0.95
2022-08-19T22:19:50.883Z,0.90
2022-08-19T22:22:36.847Z,1.20
2022-08-19T22:25:29.112Z,1.15
2022-08-19T22:28:01.921Z,0.80
2022-08-19T22:30:33.380Z,0.90
2022-08-19T22:33:05.091Z,1.23
2022-08-19T22:35:35.752Z,1.30
2022-08-19T22:38:06.304Z,1.08
2022-08-19T22:40:36.542Z,1.00
2022-08-19T22:43:31.722Z,0.95
2022-08-19T22:46:00.082Z,1.17
2022-08-19T22:48:30.684Z,1.23
2022-08-19T22:51:16.984Z,1.08
2022-08-19T22:53:46.503Z,1.10
2022-08-19T22:56:17.281Z,1.40
2022-08-19T22:58:46.045Z,1.15
2022-08-19T23:01:27.327Z,1.10
2022-08-19T23:03:59.233Z,1.27
2022-08-19T23:06:33.042Z,1.27
2022-08-19T23:09:04.646Z,1.33
2022-08-19T23:11:35.533Z,1.38
2022-08-19T23:14:04.951Z,1.30
2022-08-19T23:16:34.747Z,1.20
2022-08-19T23:21:29.580Z,1.38
2022-08-19T23:23:56.798Z,1.00
2022-08-19T23:26:24.044Z,1.35
2022-08-19T23:29:09.895Z,1.25
2022-08-19T23:31:37.264Z,1.17
2022-08-19T23:34:04.423Z,1.48
2022-08-19T23:36:31.558Z,1.23
2022-08-19T23:38:59.530Z,1.58
2022-08-19T23:41:27.877Z,1.30
2022-08-19T23:43:55.219Z,1.80
2022-08-19T23:46:27.933Z,1.40
2022-08-19T23:48:56.891Z,1.35
2022-08-19T23:51:26.334Z,1.40
2022-08-19T23:53:54.121Z,1.20
2022-08-19T23:56:21.443Z,1.20
2022-08-19T23:58:49.150Z,1.67
